sensor_id;sensor_type;location;lat;lon;timestamp;temperature;humidity
67358;HTU21D;54240;51.096;5.878;2023-03-02T00:01:39;2.03;-6.00
67358;HTU21D;54240;51.096;5.878;2023-03-02T00:04:11;2.00;-6.00
67358;HTU21D;54240;51.096;5.878;2023-03-02T00:06:39;2.05;-6.00
67358;HTU21D;54240;51.096;5.878;2023-03-02T00:09:05;1.99;-6.00
67358;HTU21D;54240;51.096;5.878;2023-03-02T00:11:34;1.96;-6.00
67358;HTU21D;54240;51.096;5.878;2023-03-02T00:14:00;1.97;-6.00
67358;HTU21D;54240;51.096;5.878;2023-03-02T00:16:26;1.94;-6.00
67358;HTU21D;54240;51.096;5.878;2023-03-02T00:18:52;1.94;-6.00
67358;HTU21D;54240;51.096;5.878;2023-03-02T00:21:18;1.93;-6.00
67358;HTU21D;54240;51.096;5.878;2023-03-02T00:23:44;1.95;-6.00
67358;HTU21D;54240;51.096;5.878;2023-03-02T00:26:10;1.91;-6.00
67358;HTU21D;54240;51.096;5.878;2023-03-02T00:28:36;1.93;-6.00
67358;HTU21D;54240;51.096;5.878;2023-03-02T00:31:05;1.94;-6.00
67358;HTU21D;54240;51.096;5.878;2023-03-02T00:33:32;1.87;-6.00
67358;HTU21D;54240;51.096;5.878;2023-03-02T00:35:58;1.85;-6.00
67358;HTU21D;54240;51.096;5.878;2023-03-02T00:38:24;1.79;-6.00
67358;HTU21D;54240;51.096;5.878;2023-03-02T00:40:49;1.80;-6.00
67358;HTU21D;54240;51.096;5.878;2023-03-02T00:43:16;1.73;-6.00
67358;HTU21D;54240;51.096;5.878;2023-03-02T00:45:42;1.71;-6.00
67358;HTU21D;54240;51.096;5.878;2023-03-02T00:48:08;1.71;-6.00
67358;HTU21D;54240;51.096;5.878;2023-03-02T00:50:34;1.72;-6.00
67358;HTU21D;54240;51.096;5.878;2023-03-02T00:53:09;1.69;-6.00
67358;HTU21D;54240;51.096;5.878;2023-03-02T00:55:36;1.73;-6.00
67358;HTU21D;54240;51.096;5.878;2023-03-02T00:58:04;1.70;-6.00
67358;HTU21D;54240;51.096;5.878;2023-03-02T01:00:31;1.60;-6.00
67358;HTU21D;54240;51.096;5.878;2023-03-02T01:03:01;1.60;-6.00
67358;HTU21D;54240;51.096;5.878;2023-03-02T01:05:27;1.61;-6.00
67358;HTU21D;54240;51.096;5.878;2023-03-02T01:07:53;1.67;-6.00
67358;HTU21D;54240;51.096;5.878;2023-03-02T01:10:19;1.65;-6.00
67358;HTU21D;54240;51.096;5.878;2023-03-02T01:12:45;1.67;-6.00
67358;HTU21D;54240;51.096;5.878;2023-03-02T01:15:11;1.66;-6.00
67358;HTU21D;54240;51.096;5.878;2023-03-02T01:17:37;1.64;-6.00
67358;HTU21D;54240;51.096;5.878;2023-03-02T01:20:05;1.63;-6.00
67358;HTU21D;54240;51.096;5.878;2023-03-02T01:22:33;1.62;-6.00
67358;HTU21D;54240;51.096;5.878;2023-03-02T01:24:59;1.60;-6.00
67358;HTU21D;54240;51.096;5.878;2023-03-02T01:27:25;1.57;-6.00
67358;HTU21D;54240;51.096;5.878;2023-03-02T01:29:50;1.55;-6.00
67358;HTU21D;54240;51.096;5.878;2023-03-02T01:32:16;1.52;-6.00
67358;HTU21D;54240;51.096;5.878;2023-03-02T01:34:42;1.48;-6.00
67358;HTU21D;54240;51.096;5.878;2023-03-02T01:37:08;1.47;-6.00
67358;HTU21D;54240;51.096;5.878;2023-03-02T01:39:34;1.41;-6.00
67358;HTU21D;54240;51.096;5.878;2023-03-02T01:42:00;1.38;-6.00
67358;HTU21D;54240;51.096;5.878;2023-03-02T01:44:40;1.33;-6.00
67358;HTU21D;54240;51.096;5.878;2023-03-02T01:47:20;1.29;-6.00
67358;HTU21D;54240;51.096;5.878;2023-03-02T01:50:21;1.22;-6.00
67358;HTU21D;54240;51.096;5.878;2023-03-02T01:52:54;1.23;-6.00
67358;HTU21D;54240;51.096;5.878;2023-03-02T01:55:24;1.20;-6.00
67358;HTU21D;54240;51.096;5.878;2023-03-02T01:57:54;1.18;-6.00
67358;HTU21D;54240;51.096;5.878;2023-03-02T02:00:26;1.13;-6.00
67358;HTU21D;54240;51.096;5.878;2023-03-02T02:02:58;1.16;-6.00
67358;HTU21D;54240;51.096;5.878;2023-03-02T02:05:37;1.12;-6.00
67358;HTU21D;54240;51.096;5.878;2023-03-02T02:08:05;1.13;-6.00
67358;HTU21D;54240;51.096;5.878;2023-03-02T02:10:33;1.14;-6.00
67358;HTU21D;54240;51.096;5.878;2023-03-02T02:12:59;1.09;-6.00
67358;HTU21D;54240;51.096;5.878;2023-03-02T02:15:26;1.09;-6.00
67358;HTU21D;54240;51.096;5.878;2023-03-02T02:17:52;1.07;-6.00
67358;HTU21D;54240;51.096;5.878;2023-03-02T02:20:40;1.02;-6.00
67358;HTU21D;54240;51.096;5.878;2023-03-02T02:28:29;0.95;-6.00
67358;HTU21D;54240;51.096;5.878;2023-03-02T02:31:12;0.93;-6.00
67358;HTU21D;54240;51.096;5.878;2023-03-02T02:33:42;0.94;-6.00
67358;HTU21D;54240;51.096;5.878;2023-03-02T02:36:21;0.92;-6.00
67358;HTU21D;54240;51.096;5.878;2023-03-02T02:38:53;0.89;-6.00
67358;HTU21D;54240;51.096;5.878;2023-03-02T02:41:25;0.88;-6.00
67358;HTU21D;54240;51.096;5.878;2023-03-02T02:43:54;0.86;-6.00
67358;HTU21D;54240;51.096;5.878;2023-03-02T02:46:21;0.86;-6.00
67358;HTU21D;54240;51.096;5.878;2023-03-02T02:48:48;0.82;-6.00
67358;HTU21D;54240;51.096;5.878;2023-03-02T02:51:20;0.79;-6.00
67358;HTU21D;54240;51.096;5.878;2023-03-02T02:53:55;0.74;-6.00
67358;HTU21D;54240;51.096;5.878;2023-03-02T02:56:31;0.67;-6.00
67358;HTU21D;54240;51.096;5.878;2023-03-02T02:59:20;0.63;-6.00
67358;HTU21D;54240;51.096;5.878;2023-03-02T03:01:48;0.58;-6.00
67358;HTU21D;54240;51.096;5.878;2023-03-02T03:04:28;0.53;-6.00
67358;HTU21D;54240;51.096;5.878;2023-03-02T03:07:01;0.49;-6.00
67358;HTU21D;54240;51.096;5.878;2023-03-02T03:09:28;0.49;-6.00
67358;HTU21D;54240;51.096;5.878;2023-03-02T03:12:07;0.51;-6.00
67358;HTU21D;54240;51.096;5.878;2023-03-02T03:14:39;0.49;-6.00
67358;HTU21D;54240;51.096;5.878;2023-03-02T03:17:07;0.51;-6.00
67358;HTU21D;54240;51.096;5.878;2023-03-02T03:19:42;0.46;-6.00
67358;HTU21D;54240;51.096;5.878;2023-03-02T03:22:10;0.47;-6.00
67358;HTU21D;54240;51.096;5.878;2023-03-02T03:24:39;0.51;-6.00
67358;HTU21D;54240;51.096;5.878;2023-03-02T03:27:08;0.49;-6.00
67358;HTU21D;54240;51.096;5.878;2023-03-02T03:29:40;0.54;-6.00
67358;HTU21D;54240;51.096;5.878;2023-03-02T03:32:08;0.46;-6.00
67358;HTU21D;54240;51.096;5.878;2023-03-02T03:34:35;0.48;-6.00
67358;HTU21D;54240;51.096;5.878;2023-03-02T03:37:14;0.48;-6.00
67358;HTU21D;54240;51.096;5.878;2023-03-02T03:39:41;0.47;-6.00
67358;HTU21D;54240;51.096;5.878;2023-03-02T03:42:08;0.47;-6.00
67358;HTU21D;54240;51.096;5.878;2023-03-02T03:44:35;0.49;-6.00
67358;HTU21D;54240;51.096;5.878;2023-03-02T03:47:01;0.44;-6.00
67358;HTU21D;54240;51.096;5.878;2023-03-02T03:49:28;0.46;-6.00
67358;HTU21D;54240;51.096;5.878;2023-03-02T03:51:54;0.45;-6.00
67358;HTU21D;54240;51.096;5.878;2023-03-02T03:54:21;0.40;-6.00
67358;HTU21D;54240;51.096;5.878;2023-03-02T03:56:48;0.37;-6.00
67358;HTU21D;54240;51.096;5.878;2023-03-02T03:59:21;0.37;-6.00
67358;HTU21D;54240;51.096;5.878;2023-03-02T04:01:57;0.29;-6.00
67358;HTU21D;54240;51.096;5.878;2023-03-02T04:04:31;0.36;-6.00
67358;HTU21D;54240;51.096;5.878;2023-03-02T04:06:58;0.38;-6.00
67358;HTU21D;54240;51.096;5.878;2023-03-02T04:09:25;0.38;-6.00
67358;HTU21D;54240;51.096;5.878;2023-03-02T04:11:54;0.38;-6.00
67358;HTU21D;54240;51.096;5.878;2023-03-02T04:14:22;0.37;-6.00
67358;HTU21D;54240;51.096;5.878;2023-03-02T04:16:50;0.33;-6.00
67358;HTU21D;54240;51.096;5.878;2023-03-02T04:19:17;0.36;-6.00
67358;HTU21D;54240;51.096;5.878;2023-03-02T04:21:49;0.35;-6.00
67358;HTU21D;54240;51.096;5.878;2023-03-02T04:24:19;0.31;-6.00
67358;HTU21D;54240;51.096;5.878;2023-03-02T04:26:46;0.32;-6.00
67358;HTU21D;54240;51.096;5.878;2023-03-02T04:29:14;0.32;-6.00
67358;HTU21D;54240;51.096;5.878;2023-03-02T04:31:41;0.32;-6.00
67358;HTU21D;54240;51.096;5.878;2023-03-02T04:34:08;0.31;-6.00
67358;HTU21D;54240;51.096;5.878;2023-03-02T04:36:38;0.31;-6.00
67358;HTU21D;54240;51.096;5.878;2023-03-02T04:39:07;0.28;-6.00
67358;HTU21D;54240;51.096;5.878;2023-03-02T04:41:34;0.17;-6.00
67358;HTU21D;54240;51.096;5.878;2023-03-02T04:44:00;0.23;-6.00
67358;HTU21D;54240;51.096;5.878;2023-03-02T04:46:27;0.21;-6.00
67358;HTU21D;54240;51.096;5.878;2023-03-02T04:48:53;0.20;-6.00
67358;HTU21D;54240;51.096;5.878;2023-03-02T04:51:23;0.19;-6.00
67358;HTU21D;54240;51.096;5.878;2023-03-02T04:53:51;0.12;-6.00
67358;HTU21D;54240;51.096;5.878;2023-03-02T04:56:17;0.15;-6.00
67358;HTU21D;54240;51.096;5.878;2023-03-02T04:58:42;0.10;-6.00
67358;HTU21D;54240;51.096;5.878;2023-03-02T05:01:09;0.10;-6.00
67358;HTU21D;54240;51.096;5.878;2023-03-02T05:03:35;0.13;-6.00
67358;HTU21D;54240;51.096;5.878;2023-03-02T05:06:01;0.10;-6.00
67358;HTU21D;54240;51.096;5.878;2023-03-02T05:08:31;0.10;-6.00
67358;HTU21D;54240;51.096;5.878;2023-03-02T05:10:57;0.06;-6.00
67358;HTU21D;54240;51.096;5.878;2023-03-02T05:13:26;0.10;-6.00
67358;HTU21D;54240;51.096;5.878;2023-03-02T05:15:52;0.13;-6.00
67358;HTU21D;54240;51.096;5.878;2023-03-02T05:18:19;0.13;-6.00
67358;HTU21D;54240;51.096;5.878;2023-03-02T05:20:45;0.15;-6.00
67358;HTU21D;54240;51.096;5.878;2023-03-02T05:23:13;0.13;-6.00
67358;HTU21D;54240;51.096;5.878;2023-03-02T05:25:49;0.08;-6.00
67358;HTU21D;54240;51.096;5.878;2023-03-02T05:28:17;0.10;-6.00
67358;HTU21D;54240;51.096;5.878;2023-03-02T05:30:43;0.09;-6.00
67358;HTU21D;54240;51.096;5.878;2023-03-02T05:33:09;-0.00;-6.00
67358;HTU21D;54240;51.096;5.878;2023-03-02T05:35:35;0.07;-6.00
67358;HTU21D;54240;51.096;5.878;2023-03-02T05:38:01;0.04;-6.00
67358;HTU21D;54240;51.096;5.878;2023-03-02T05:40:27;0.06;-6.00
67358;HTU21D;54240;51.096;5.878;2023-03-02T05:42:53;0.04;-6.00
67358;HTU21D;54240;51.096;5.878;2023-03-02T05:45:28;0.05;-6.00
67358;HTU21D;54240;51.096;5.878;2023-03-02T05:47:55;0.04;-6.00
67358;HTU21D;54240;51.096;5.878;2023-03-02T05:50:20;0.04;-6.00
67358;HTU21D;54240;51.096;5.878;2023-03-02T05:52:48;0.05;-6.00
67358;HTU21D;54240;51.096;5.878;2023-03-02T05:55:15;0.06;-6.00
67358;HTU21D;54240;51.096;5.878;2023-03-02T05:57:42;0.06;-6.00
67358;HTU21D;54240;51.096;5.878;2023-03-02T06:00:10;0.03;-6.00
67358;HTU21D;54240;51.096;5.878;2023-03-02T06:02:40;0.04;-6.00
67358;HTU21D;54240;51.096;5.878;2023-03-02T06:05:09;0.04;-6.00
67358;HTU21D;54240;51.096;5.878;2023-03-02T06:07:35;0.02;-6.00
67358;HTU21D;54240;51.096;5.878;2023-03-02T06:10:03;0.01;-6.00
67358;HTU21D;54240;51.096;5.878;2023-03-02T06:12:28;-0.00;-6.00
67358;HTU21D;54240;51.096;5.878;2023-03-02T06:14:54;-0.01;-6.00
67358;HTU21D;54240;51.096;5.878;2023-03-02T06:17:20;-0.02;-6.00
67358;HTU21D;54240;51.096;5.878;2023-03-02T06:19:46;-0.00;-6.00
67358;HTU21D;54240;51.096;5.878;2023-03-02T06:22:12;-0.03;-6.00
67358;HTU21D;54240;51.096;5.878;2023-03-02T06:24:37;-0.02;-6.00
67358;HTU21D;54240;51.096;5.878;2023-03-02T06:27:03;-0.01;-6.00
67358;HTU21D;54240;51.096;5.878;2023-03-02T06:29:29;-0.01;-6.00
67358;HTU21D;54240;51.096;5.878;2023-03-02T06:31:55;0.02;-6.00
67358;HTU21D;54240;51.096;5.878;2023-03-02T06:34:21;0.02;-6.00
67358;HTU21D;54240;51.096;5.878;2023-03-02T06:36:47;0.07;-6.00
67358;HTU21D;54240;51.096;5.878;2023-03-02T06:39:13;0.13;-6.00
67358;HTU21D;54240;51.096;5.878;2023-03-02T06:41:44;0.14;-6.00
67358;HTU21D;54240;51.096;5.878;2023-03-02T06:44:10;0.18;-6.00
67358;HTU21D;54240;51.096;5.878;2023-03-02T06:46:37;0.22;-6.00
67358;HTU21D;54240;51.096;5.878;2023-03-02T06:49:04;0.23;-6.00
67358;HTU21D;54240;51.096;5.878;2023-03-02T06:51:31;0.25;-6.00
67358;HTU21D;54240;51.096;5.878;2023-03-02T06:53:56;0.30;-6.00
67358;HTU21D;54240;51.096;5.878;2023-03-02T06:56:22;0.32;-6.00
67358;HTU21D;54240;51.096;5.878;2023-03-02T06:58:48;0.34;-6.00
67358;HTU21D;54240;51.096;5.878;2023-03-02T07:01:14;0.33;-6.00
67358;HTU21D;54240;51.096;5.878;2023-03-02T07:03:41;0.38;-6.00
67358;HTU21D;54240;51.096;5.878;2023-03-02T07:06:06;0.45;-6.00
67358;HTU21D;54240;51.096;5.878;2023-03-02T07:08:33;0.49;-6.00
67358;HTU21D;54240;51.096;5.878;2023-03-02T07:11:02;0.55;-6.00
67358;HTU21D;54240;51.096;5.878;2023-03-02T07:13:28;0.65;-6.00
67358;HTU21D;54240;51.096;5.878;2023-03-02T07:15:55;0.75;-6.00
67358;HTU21D;54240;51.096;5.878;2023-03-02T07:18:21;0.80;-6.00
67358;HTU21D;54240;51.096;5.878;2023-03-02T07:20:47;0.87;-6.00
67358;HTU21D;54240;51.096;5.878;2023-03-02T07:23:13;0.99;-6.00
67358;HTU21D;54240;51.096;5.878;2023-03-02T07:25:39;1.23;-6.00
67358;HTU21D;54240;51.096;5.878;2023-03-02T07:28:05;1.43;-6.00
67358;HTU21D;54240;51.096;5.878;2023-03-02T07:30:30;1.71;-6.00
67358;HTU21D;54240;51.096;5.878;2023-03-02T07:32:56;1.94;-6.00
67358;HTU21D;54240;51.096;5.878;2023-03-02T07:35:22;2.20;-6.00
67358;HTU21D;54240;51.096;5.878;2023-03-02T07:37:50;2.27;-6.00
67358;HTU21D;54240;51.096;5.878;2023-03-02T07:40:16;2.45;-6.00
67358;HTU21D;54240;51.096;5.878;2023-03-02T07:42:42;2.58;-6.00
67358;HTU21D;54240;51.096;5.878;2023-03-02T07:45:10;2.75;-6.00
67358;HTU21D;54240;51.096;5.878;2023-03-02T07:47:36;2.87;-6.00
67358;HTU21D;54240;51.096;5.878;2023-03-02T07:50:02;2.88;-6.00
67358;HTU21D;54240;51.096;5.878;2023-03-02T07:52:29;3.13;-6.00
67358;HTU21D;54240;51.096;5.878;2023-03-02T07:54:56;3.25;-6.00
67358;HTU21D;54240;51.096;5.878;2023-03-02T07:57:21;3.23;-6.00
67358;HTU21D;54240;51.096;5.878;2023-03-02T07:59:47;3.36;-6.00
67358;HTU21D;54240;51.096;5.878;2023-03-02T08:02:15;3.42;-6.00
67358;HTU21D;54240;51.096;5.878;2023-03-02T08:04:42;3.64;-6.00
67358;HTU21D;54240;51.096;5.878;2023-03-02T08:07:08;3.61;-6.00
67358;HTU21D;54240;51.096;5.878;2023-03-02T08:09:34;3.74;-6.00
67358;HTU21D;54240;51.096;5.878;2023-03-02T08:12:00;3.88;-6.00
67358;HTU21D;54240;51.096;5.878;2023-03-02T08:14:25;3.93;-6.00
67358;HTU21D;54240;51.096;5.878;2023-03-02T08:16:51;4.32;-6.00
67358;HTU21D;54240;51.096;5.878;2023-03-02T08:19:20;4.16;-6.00
67358;HTU21D;54240;51.096;5.878;2023-03-02T08:21:46;4.23;-6.00
67358;HTU21D;54240;51.096;5.878;2023-03-02T08:24:12;4.65;-6.00
67358;HTU21D;54240;51.096;5.878;2023-03-02T08:26:38;4.47;-6.00
67358;HTU21D;54240;51.096;5.878;2023-03-02T08:29:04;4.47;-6.00
67358;HTU21D;54240;51.096;5.878;2023-03-02T08:31:30;4.64;-6.00
67358;HTU21D;54240;51.096;5.878;2023-03-02T08:33:56;4.64;-6.00
67358;HTU21D;54240;51.096;5.878;2023-03-02T08:36:24;5.02;-6.00
67358;HTU21D;54240;51.096;5.878;2023-03-02T08:38:50;5.18;-6.00
67358;HTU21D;54240;51.096;5.878;2023-03-02T08:41:19;5.16;-6.00
67358;HTU21D;54240;51.096;5.878;2023-03-02T08:43:46;5.31;-6.00
67358;HTU21D;54240;51.096;5.878;2023-03-02T08:46:15;5.80;-6.00
67358;HTU21D;54240;51.096;5.878;2023-03-02T08:48:41;5.90;-6.00
67358;HTU21D;54240;51.096;5.878;2023-03-02T08:51:14;6.00;-6.00
67358;HTU21D;54240;51.096;5.878;2023-03-02T08:53:44;6.01;-6.00
67358;HTU21D;54240;51.096;5.878;2023-03-02T08:58:40;5.85;-6.00
67358;HTU21D;54240;51.096;5.878;2023-03-02T09:01:12;6.14;-6.00
67358;HTU21D;54240;51.096;5.878;2023-03-02T09:03:38;6.04;-6.00
67358;HTU21D;54240;51.096;5.878;2023-03-02T09:06:04;6.09;-6.00
67358;HTU21D;54240;51.096;5.878;2023-03-02T09:08:30;5.96;-6.00
67358;HTU21D;54240;51.096;5.878;2023-03-02T09:10:55;6.17;-6.00
67358;HTU21D;54240;51.096;5.878;2023-03-02T09:13:21;5.90;-6.00
67358;HTU21D;54240;51.096;5.878;2023-03-02T09:15:47;6.61;-6.00
67358;HTU21D;54240;51.096;5.878;2023-03-02T09:18:13;7.30;-6.00
67358;HTU21D;54240;51.096;5.878;2023-03-02T09:20:38;7.20;-6.00
67358;HTU21D;54240;51.096;5.878;2023-03-02T09:23:04;6.91;-6.00
67358;HTU21D;54240;51.096;5.878;2023-03-02T09:25:30;6.84;-6.00
67358;HTU21D;54240;51.096;5.878;2023-03-02T09:27:56;7.15;-6.00
67358;HTU21D;54240;51.096;5.878;2023-03-02T09:30:22;7.24;-6.00
67358;HTU21D;54240;51.096;5.878;2023-03-02T09:32:48;7.29;-6.00
67358;HTU21D;54240;51.096;5.878;2023-03-02T09:35:14;7.05;-6.00
67358;HTU21D;54240;51.096;5.878;2023-03-02T09:37:39;7.43;-6.00
67358;HTU21D;54240;51.096;5.878;2023-03-02T09:40:18;7.90;-6.00
67358;HTU21D;54240;51.096;5.878;2023-03-02T09:48:21;7.91;-6.00
67358;HTU21D;54240;51.096;5.878;2023-03-02T09:53:59;8.29;-6.00
67358;HTU21D;54240;51.096;5.878;2023-03-02T09:56:27;7.70;-6.00
67358;HTU21D;54240;51.096;5.878;2023-03-02T09:59:04;7.90;-6.00
67358;HTU21D;54240;51.096;5.878;2023-03-02T10:01:41;8.78;-6.00
67358;HTU21D;54240;51.096;5.878;2023-03-02T10:06:41;9.51;-6.00
67358;HTU21D;54240;51.096;5.878;2023-03-02T10:09:08;9.36;-6.00
67358;HTU21D;54240;51.096;5.878;2023-03-02T10:11:41;9.26;-6.00
67358;HTU21D;54240;51.096;5.878;2023-03-02T10:14:38;9.49;-6.00
67358;HTU21D;54240;51.096;5.878;2023-03-02T10:17:36;9.23;-6.00
67358;HTU21D;54240;51.096;5.878;2023-03-02T10:20:15;10.08;-6.00
67358;HTU21D;54240;51.096;5.878;2023-03-02T10:22:52;10.21;-6.00
67358;HTU21D;54240;51.096;5.878;2023-03-02T10:25:29;10.57;-6.00
67358;HTU21D;54240;51.096;5.878;2023-03-02T10:28:15;10.89;-6.00
67358;HTU21D;54240;51.096;5.878;2023-03-02T10:30:42;10.08;-6.00
67358;HTU21D;54240;51.096;5.878;2023-03-02T10:33:15;9.39;-6.00
67358;HTU21D;54240;51.096;5.878;2023-03-02T10:35:47;9.46;-6.00
67358;HTU21D;54240;51.096;5.878;2023-03-02T10:38:18;9.51;-6.00
67358;HTU21D;54240;51.096;5.878;2023-03-02T10:40:46;9.63;-6.00
67358;HTU21D;54240;51.096;5.878;2023-03-02T10:46:06;10.08;-6.00
67358;HTU21D;54240;51.096;5.878;2023-03-02T10:48:52;10.34;-6.00
67358;HTU21D;54240;51.096;5.878;2023-03-02T10:51:30;10.40;-6.00
67358;HTU21D;54240;51.096;5.878;2023-03-02T10:54:09;10.58;-6.00
67358;HTU21D;54240;51.096;5.878;2023-03-02T10:56:36;10.50;-6.00
67358;HTU21D;54240;51.096;5.878;2023-03-02T11:01:58;10.08;-6.00
67358;HTU21D;54240;51.096;5.878;2023-03-02T11:04:25;10.90;-6.00
67358;HTU21D;54240;51.096;5.878;2023-03-02T11:06:52;11.61;-6.00
67358;HTU21D;54240;51.096;5.878;2023-03-02T11:09:18;11.74;-6.00
67358;HTU21D;54240;51.096;5.878;2023-03-02T11:11:54;11.70;-6.00
67358;HTU21D;54240;51.096;5.878;2023-03-02T11:14:21;11.76;-6.00
67358;HTU21D;54240;51.096;5.878;2023-03-02T11:16:51;12.01;-6.00
67358;HTU21D;54240;51.096;5.878;2023-03-02T11:19:39;12.34;-6.00
67358;HTU21D;54240;51.096;5.878;2023-03-02T11:22:33;13.22;-6.00
67358;HTU21D;54240;51.096;5.878;2023-03-02T11:25:05;13.68;-6.00
67358;HTU21D;54240;51.096;5.878;2023-03-02T11:27:38;14.13;-6.00
67358;HTU21D;54240;51.096;5.878;2023-03-02T11:30:16;14.37;-6.00
67358;HTU21D;54240;51.096;5.878;2023-03-02T11:32:53;13.58;-6.00
67358;HTU21D;54240;51.096;5.878;2023-03-02T11:35:36;12.58;-6.00
67358;HTU21D;54240;51.096;5.878;2023-03-02T11:38:26;12.35;-6.00
67358;HTU21D;54240;51.096;5.878;2023-03-02T11:41:01;13.03;-6.00
67358;HTU21D;54240;51.096;5.878;2023-03-02T11:43:29;13.56;-6.00
67358;HTU21D;54240;51.096;5.878;2023-03-02T11:46:00;13.25;-6.00
67358;HTU21D;54240;51.096;5.878;2023-03-02T11:48:38;12.55;-6.00
67358;HTU21D;54240;51.096;5.878;2023-03-02T11:51:12;12.17;-6.00
67358;HTU21D;54240;51.096;5.878;2023-03-02T11:53:58;12.38;-6.00
67358;HTU21D;54240;51.096;5.878;2023-03-02T11:56:29;12.12;-6.00
67358;HTU21D;54240;51.096;5.878;2023-03-02T11:59:09;12.52;-6.00
67358;HTU21D;54240;51.096;5.878;2023-03-02T12:01:37;12.88;-6.00
67358;HTU21D;54240;51.096;5.878;2023-03-02T12:04:22;13.40;-6.00
67358;HTU21D;54240;51.096;5.878;2023-03-02T12:06:49;13.04;-6.00
67358;HTU21D;54240;51.096;5.878;2023-03-02T12:11:54;14.45;-6.00
67358;HTU21D;54240;51.096;5.878;2023-03-02T12:14:35;14.95;-6.00
67358;HTU21D;54240;51.096;5.878;2023-03-02T12:19:44;14.60;-6.00
67358;HTU21D;54240;51.096;5.878;2023-03-02T12:22:11;13.99;-6.00
67358;HTU21D;54240;51.096;5.878;2023-03-02T12:24:42;13.62;-6.00
67358;HTU21D;54240;51.096;5.878;2023-03-02T12:32:34;14.63;-6.00
67358;HTU21D;54240;51.096;5.878;2023-03-02T12:37:45;12.74;-6.00
67358;HTU21D;54240;51.096;5.878;2023-03-02T12:43:37;12.32;-6.00
67358;HTU21D;54240;51.096;5.878;2023-03-02T12:46:29;11.68;-6.00
67358;HTU21D;54240;51.096;5.878;2023-03-02T12:51:55;10.89;-6.00
67358;HTU21D;54240;51.096;5.878;2023-03-02T12:54:25;10.74;-6.00
67358;HTU21D;54240;51.096;5.878;2023-03-02T12:59:34;10.72;-6.00
67358;HTU21D;54240;51.096;5.878;2023-03-02T13:02:22;10.81;-6.00
67358;HTU21D;54240;51.096;5.878;2023-03-02T13:04:53;10.97;-6.00
67358;HTU21D;54240;51.096;5.878;2023-03-02T13:07:25;11.25;-6.00
67358;HTU21D;54240;51.096;5.878;2023-03-02T13:09:54;11.17;-6.00
67358;HTU21D;54240;51.096;5.878;2023-03-02T13:12:21;11.38;-6.00
67358;HTU21D;54240;51.096;5.878;2023-03-02T13:14:53;11.68;-6.00
67358;HTU21D;54240;51.096;5.878;2023-03-02T13:17:23;11.53;-6.00
67358;HTU21D;54240;51.096;5.878;2023-03-02T13:19:49;11.29;-6.00
67358;HTU21D;54240;51.096;5.878;2023-03-02T13:22:17;11.17;-6.00
67358;HTU21D;54240;51.096;5.878;2023-03-02T13:25:04;10.97;-6.00
67358;HTU21D;54240;51.096;5.878;2023-03-02T13:27:33;11.41;-6.00
67358;HTU21D;54240;51.096;5.878;2023-03-02T13:30:32;11.49;-6.00
67358;HTU21D;54240;51.096;5.878;2023-03-02T13:33:00;11.37;-6.00
67358;HTU21D;54240;51.096;5.878;2023-03-02T13:35:34;11.18;-6.00
67358;HTU21D;54240;51.096;5.878;2023-03-02T13:38:05;11.11;-6.00
67358;HTU21D;54240;51.096;5.878;2023-03-02T13:40:41;11.19;-6.00
67358;HTU21D;54240;51.096;5.878;2023-03-02T13:43:33;11.11;-6.00
67358;HTU21D;54240;51.096;5.878;2023-03-02T13:48:30;11.00;-6.00
67358;HTU21D;54240;51.096;5.878;2023-03-02T13:51:02;11.10;-6.00
67358;HTU21D;54240;51.096;5.878;2023-03-02T13:53:37;11.34;-6.00
67358;HTU21D;54240;51.096;5.878;2023-03-02T13:56:14;11.53;-6.00
67358;HTU21D;54240;51.096;5.878;2023-03-02T13:58:41;11.63;-6.00
67358;HTU21D;54240;51.096;5.878;2023-03-02T14:01:10;11.49;-6.00
67358;HTU21D;54240;51.096;5.878;2023-03-02T14:03:37;11.28;-6.00
67358;HTU21D;54240;51.096;5.878;2023-03-02T14:06:03;11.12;-6.00
67358;HTU21D;54240;51.096;5.878;2023-03-02T14:08:31;11.00;-6.00
67358;HTU21D;54240;51.096;5.878;2023-03-02T14:10:59;11.01;-6.00
67358;HTU21D;54240;51.096;5.878;2023-03-02T14:13:40;11.22;-6.00
67358;HTU21D;54240;51.096;5.878;2023-03-02T14:16:15;11.19;-6.00
67358;HTU21D;54240;51.096;5.878;2023-03-02T14:18:48;11.26;-6.00
67358;HTU21D;54240;51.096;5.878;2023-03-02T14:21:20;11.43;-6.00
67358;HTU21D;54240;51.096;5.878;2023-03-02T14:23:47;11.33;-6.00
67358;HTU21D;54240;51.096;5.878;2023-03-02T14:26:35;11.49;-6.00
67358;HTU21D;54240;51.096;5.878;2023-03-02T14:31:47;11.19;-6.00
67358;HTU21D;54240;51.096;5.878;2023-03-02T14:34:14;10.95;-6.00
67358;HTU21D;54240;51.096;5.878;2023-03-02T14:36:43;10.86;-6.00
67358;HTU21D;54240;51.096;5.878;2023-03-02T14:39:48;11.31;-6.00
67358;HTU21D;54240;51.096;5.878;2023-03-02T14:42:20;11.28;-6.00
67358;HTU21D;54240;51.096;5.878;2023-03-02T14:44:48;11.26;-6.00
67358;HTU21D;54240;51.096;5.878;2023-03-02T14:47:15;11.11;-6.00
67358;HTU21D;54240;51.096;5.878;2023-03-02T14:49:42;11.38;-6.00
67358;HTU21D;54240;51.096;5.878;2023-03-02T14:52:22;11.39;-6.00
67358;HTU21D;54240;51.096;5.878;2023-03-02T14:54:54;11.49;-6.00
67358;HTU21D;54240;51.096;5.878;2023-03-02T14:57:23;11.61;-6.00
67358;HTU21D;54240;51.096;5.878;2023-03-02T14:59:51;11.66;-6.00
67358;HTU21D;54240;51.096;5.878;2023-03-02T15:02:20;11.57;-6.00
67358;HTU21D;54240;51.096;5.878;2023-03-02T15:04:46;11.70;-6.00
67358;HTU21D;54240;51.096;5.878;2023-03-02T15:07:20;11.31;-6.00
67358;HTU21D;54240;51.096;5.878;2023-03-02T15:09:46;11.30;-6.00
67358;HTU21D;54240;51.096;5.878;2023-03-02T15:12:13;11.36;-6.00
67358;HTU21D;54240;51.096;5.878;2023-03-02T15:14:39;11.14;-6.00
67358;HTU21D;54240;51.096;5.878;2023-03-02T15:17:05;11.45;-6.00
67358;HTU21D;54240;51.096;5.878;2023-03-02T15:19:31;11.44;-6.00
67358;HTU21D;54240;51.096;5.878;2023-03-02T15:21:58;11.19;-6.00
67358;HTU21D;54240;51.096;5.878;2023-03-02T15:24:23;11.30;-6.00
67358;HTU21D;54240;51.096;5.878;2023-03-02T15:26:51;10.92;-6.00
67358;HTU21D;54240;51.096;5.878;2023-03-02T15:29:19;10.92;-6.00
67358;HTU21D;54240;51.096;5.878;2023-03-02T15:31:45;10.87;-6.00
67358;HTU21D;54240;51.096;5.878;2023-03-02T15:34:12;10.99;-6.00
67358;HTU21D;54240;51.096;5.878;2023-03-02T15:36:39;10.99;-6.00
67358;HTU21D;54240;51.096;5.878;2023-03-02T15:39:05;10.92;-6.00
67358;HTU21D;54240;51.096;5.878;2023-03-02T15:41:34;11.36;-6.00
67358;HTU21D;54240;51.096;5.878;2023-03-02T15:44:00;11.14;-6.00
67358;HTU21D;54240;51.096;5.878;2023-03-02T15:46:26;11.00;-6.00
67358;HTU21D;54240;51.096;5.878;2023-03-02T15:48:52;11.00;-6.00
67358;HTU21D;54240;51.096;5.878;2023-03-02T15:51:19;10.95;-6.00
67358;HTU21D;54240;51.096;5.878;2023-03-02T15:53:45;11.08;-6.00
67358;HTU21D;54240;51.096;5.878;2023-03-02T15:56:14;11.05;-6.00
67358;HTU21D;54240;51.096;5.878;2023-03-02T15:58:47;10.83;-6.00
67358;HTU21D;54240;51.096;5.878;2023-03-02T16:01:14;10.85;-6.00
67358;HTU21D;54240;51.096;5.878;2023-03-02T16:03:42;10.95;-6.00
67358;HTU21D;54240;51.096;5.878;2023-03-02T16:06:08;10.85;-6.00
67358;HTU21D;54240;51.096;5.878;2023-03-02T16:08:35;10.86;-6.00
67358;HTU21D;54240;51.096;5.878;2023-03-02T16:11:08;10.95;-6.00
67358;HTU21D;54240;51.096;5.878;2023-03-02T16:13:34;10.98;-6.00
67358;HTU21D;54240;51.096;5.878;2023-03-02T16:16:02;11.20;-6.00
67358;HTU21D;54240;51.096;5.878;2023-03-02T16:18:29;11.19;-6.00
67358;HTU21D;54240;51.096;5.878;2023-03-02T16:20:55;11.13;-6.00
67358;HTU21D;54240;51.096;5.878;2023-03-02T16:23:21;10.94;-6.00
67358;HTU21D;54240;51.096;5.878;2023-03-02T16:25:47;10.77;-6.00
67358;HTU21D;54240;51.096;5.878;2023-03-02T16:28:15;10.54;-6.00
67358;HTU21D;54240;51.096;5.878;2023-03-02T16:30:42;10.38;-6.00
67358;HTU21D;54240;51.096;5.878;2023-03-02T16:33:14;10.36;-6.00